Time;durP1;ratioP1;P1;durP2;ratioP2;P2;SDS_P1;SDS_P2;PMS_P1;PMS_P2;Temp;Humidity;BMP_temperature;BMP_pressure;BME280_temperature;BME280_humidity;BME280_pressure;Samples;Min_cycle;Max_cycle;Signal;HPM_P1;HPM_P2
2021/10/02 00:47:03;;;;;;;;;;;12.40;99.90;;;;;;5015347;28;19960;-76
2021/10/02 00:49:28;;;;;;;;;;;12.50;99.90;;;;;;5015348;28;19909;-76
2021/10/02 00:51:54;;;;;;;;;;;12.60;99.90;;;;;;5015428;28;19909;-76
2021/10/02 00:54:20;;;;;;;;;;;12.60;99.90;;;;;;5015503;28;19906;-76
2021/10/02 00:56:45;;;;;;;;;;;12.40;99.90;;;;;;5015317;28;20312;-76
2021/10/02 00:59:11;;;;;;;;;;;12.50;99.90;;;;;;5015311;28;19905;-76
2021/10/02 01:01:42;;;;;;;;;;;12.50;99.90;;;;;;5015805;28;20048;-76
2021/10/02 01:04:28;;;;;;;;;;;12.50;99.90;;;;;;5014033;28;19964;-76
2021/10/02 01:07:05;;;;;;;;;;;12.50;99.90;;;;;;5014807;28;19913;-76
2021/10/02 01:09:33;;;;;;;;;;;12.60;99.90;;;;;;5015673;28;19937;-76
2021/10/02 01:12:24;;;;;;;;;;;12.60;99.90;;;;;;5015140;28;20362;-75
2021/10/02 01:15:02;;;;;;;;;;;12.50;99.90;;;;;;5015286;28;19947;-76
2021/10/02 01:17:31;;;;;;;;;;;12.80;99.90;;;;;;5014985;28;19996;-76
2021/10/02 01:20:04;;;;;;;;;;;13.00;99.90;;;;;;5015364;28;19905;-76
2021/10/02 01:22:37;;;;;;;;;;;13.00;99.90;;;;;;5014987;28;19969;-75
2021/10/02 01:25:26;;;;;;;;;;;12.90;99.90;;;;;;5015219;28;20350;-76
2021/10/02 01:27:57;;;;;;;;;;;12.50;99.90;;;;;;4995609;28;19952;-76
2021/10/02 01:33:15;;;;;;;;;;;12.40;99.90;;;;;;5014553;28;19910;-76
2021/10/02 01:49:06;;;;;;;;;;;12.50;99.90;;;;;;5014561;28;19913;-76
2021/10/02 01:51:32;;;;;;;;;;;12.40;99.90;;;;;;5014360;28;19909;-76
2021/10/02 01:53:58;;;;;;;;;;;12.40;99.90;;;;;;5014501;28;20372;-76
2021/10/02 01:56:24;;;;;;;;;;;12.40;99.90;;;;;;5014406;28;19905;-76
2021/10/02 01:58:51;;;;;;;;;;;12.50;99.90;;;;;;5014590;28;19905;-76
2021/10/02 02:01:17;;;;;;;;;;;12.70;99.90;;;;;;5013754;28;19906;-75
2021/10/02 02:03:44;;;;;;;;;;;12.60;99.90;;;;;;5014379;28;19995;-76
2021/10/02 02:06:10;;;;;;;;;;;12.60;99.90;;;;;;5014057;28;20381;-76
2021/10/02 02:08:36;;;;;;;;;;;12.50;99.90;;;;;;5013055;28;19906;-75
2021/10/02 02:11:03;;;;;;;;;;;12.60;99.90;;;;;;5014435;28;19905;-76
2021/10/02 02:13:30;;;;;;;;;;;12.60;99.90;;;;;;5014178;28;20458;-76
2021/10/02 02:15:58;;;;;;;;;;;12.50;99.90;;;;;;5014316;28;19912;-76
2021/10/02 02:18:24;;;;;;;;;;;12.50;99.90;;;;;;5014281;28;19905;-76
2021/10/02 02:20:57;;;;;;;;;;;12.50;99.90;;;;;;5014087;28;20272;-76
2021/10/02 02:23:25;;;;;;;;;;;12.50;99.90;;;;;;5014215;28;19912;-76
2021/10/02 02:25:51;;;;;;;;;;;12.50;99.90;;;;;;5012742;28;19912;-75
2021/10/02 02:28:18;;;;;;;;;;;12.40;99.90;;;;;;5014375;28;19905;-75
2021/10/02 02:30:43;;;;;;;;;;;12.50;99.90;;;;;;5014326;28;19905;-76
2021/10/02 02:33:09;;;;;;;;;;;12.60;99.90;;;;;;5013978;28;19913;-76
2021/10/02 02:35:35;;;;;;;;;;;12.70;99.90;;;;;;5013941;28;20021;-76
2021/10/02 02:38:01;;;;;;;;;;;12.80;99.90;;;;;;5012575;28;20000;-75
2021/10/02 02:40:27;;;;;;;;;;;12.80;99.90;;;;;;5014006;28;20005;-77
2021/10/02 02:42:52;;;;;;;;;;;12.80;99.90;;;;;;5012555;28;19905;-76
2021/10/02 02:45:18;;;;;;;;;;;12.80;99.90;;;;;;5014035;28;19912;-76
2021/10/02 02:47:47;;;;;;;;;;;12.70;99.90;;;;;;5012634;28;19909;-76
2021/10/02 02:50:19;;;;;;;;;;;12.70;99.90;;;;;;5013807;28;19941;-76
2021/10/02 02:52:48;;;;;;;;;;;12.70;99.90;;;;;;5013755;28;20348;-76
2021/10/02 02:55:15;;;;;;;;;;;12.70;99.90;;;;;;5013815;28;19906;-76
2021/10/02 02:57:46;;;;;;;;;;;12.80;99.90;;;;;;5013728;28;20266;-76
2021/10/02 03:00:16;;;;;;;;;;;12.90;99.90;;;;;;5014081;28;19905;-79
2021/10/02 03:02:44;;;;;;;;;;;13.00;99.90;;;;;;5013765;28;20012;-79
2021/10/02 03:05:10;;;;;;;;;;;12.90;99.90;;;;;;5013535;28;19960;-78
2021/10/02 03:07:40;;;;;;;;;;;12.90;99.90;;;;;;5013897;28;20361;-78
2021/10/02 03:10:10;;;;;;;;;;;12.90;99.90;;;;;;5013780;28;19912;-78
2021/10/02 03:12:37;;;;;;;;;;;12.80;99.90;;;;;;5015086;28;19913;-76
2021/10/02 03:15:04;;;;;;;;;;;12.70;99.90;;;;;;5017336;28;19912;-75
2021/10/02 03:17:30;;;;;;;;;;;12.70;99.90;;;;;;5015963;28;19913;-76
2021/10/02 03:19:57;;;;;;;;;;;12.70;99.90;;;;;;5017282;28;19910;-76
2021/10/02 03:22:25;;;;;;;;;;;12.70;99.90;;;;;;5017238;28;19912;-75
2021/10/02 03:24:51;;;;;;;;;;;12.60;99.90;;;;;;5017115;28;20278;-75
2021/10/02 03:27:16;;;;;;;;;;;12.70;99.90;;;;;;5017105;28;20328;-76
2021/10/02 03:29:42;;;;;;;;;;;12.80;99.90;;;;;;5017122;28;19905;-76
2021/10/02 03:32:08;;;;;;;;;;;12.80;99.90;;;;;;5015720;28;19917;-76
2021/10/02 03:34:34;;;;;;;;;;;12.90;99.90;;;;;;5016949;28;19913;-76
2021/10/02 03:37:00;;;;;;;;;;;12.80;99.90;;;;;;5017005;28;19997;-76
2021/10/02 03:39:26;;;;;;;;;;;12.80;99.90;;;;;;5015553;28;19996;-76
2021/10/02 03:42:05;;;;;;;;;;;12.80;99.90;;;;;;5017042;28;20306;-76
2021/10/02 03:44:30;;;;;;;;;;;12.80;99.90;;;;;;5017158;28;19951;-76
2021/10/02 03:46:56;;;;;;;;;;;12.90;99.90;;;;;;5016739;28;19905;-76
2021/10/02 03:49:21;;;;;;;;;;;12.90;99.90;;;;;;5016767;28;20301;-76
2021/10/02 03:51:47;;;;;;;;;;;13.00;99.90;;;;;;5015281;28;20003;-76
2021/10/02 03:54:12;;;;;;;;;;;13.00;99.90;;;;;;5016600;28;19905;-76
2021/10/02 03:56:38;;;;;;;;;;;13.00;99.90;;;;;;5016906;28;19932;-76
2021/10/02 03:59:04;;;;;;;;;;;13.10;99.90;;;;;;5016859;28;19905;-76
2021/10/02 04:01:29;;;;;;;;;;;13.20;99.90;;;;;;5016738;28;20382;-76
2021/10/02 04:03:55;;;;;;;;;;;13.30;99.90;;;;;;5016579;28;20281;-76
2021/10/02 04:06:20;;;;;;;;;;;13.50;99.90;;;;;;5016254;28;19920;-76
2021/10/02 04:08:46;;;;;;;;;;;13.50;99.90;;;;;;5016613;28;19905;-76
2021/10/02 04:11:12;;;;;;;;;;;13.60;99.90;;;;;;5016646;28;19992;-76
2021/10/02 04:13:37;;;;;;;;;;;13.50;99.90;;;;;;5016311;28;19975;-76
2021/10/02 04:16:03;;;;;;;;;;;13.50;99.90;;;;;;5016312;28;20354;-76
2021/10/02 04:18:29;;;;;;;;;;;13.50;99.90;;;;;;5016140;28;19909;-76
2021/10/02 04:20:54;;;;;;;;;;;13.50;99.90;;;;;;5016121;28;20330;-76
2021/10/02 04:23:20;;;;;;;;;;;13.60;99.90;;;;;;5015454;28;19906;-77
2021/10/02 04:25:45;;;;;;;;;;;13.60;99.90;;;;;;5016044;28;19939;-76
2021/10/02 04:28:11;;;;;;;;;;;13.60;99.90;;;;;;5014645;28;19914;-76
2021/10/02 04:30:36;;;;;;;;;;;13.50;99.90;;;;;;5016328;28;19912;-76
2021/10/02 04:33:02;;;;;;;;;;;13.40;99.90;;;;;;5016036;28;20370;-76
2021/10/02 04:35:28;;;;;;;;;;;13.50;99.90;;;;;;5014564;28;19905;-76
2021/10/02 04:37:53;;;;;;;;;;;13.50;99.90;;;;;;5015734;28;19912;-76
2021/10/02 04:40:19;;;;;;;;;;;13.50;99.90;;;;;;5015674;28;19913;-76
2021/10/02 04:42:45;;;;;;;;;;;13.50;99.90;;;;;;5015824;28;19927;-76
2021/10/02 04:45:10;;;;;;;;;;;13.60;99.90;;;;;;5015658;28;19906;-76
2021/10/02 04:47:36;;;;;;;;;;;13.60;99.90;;;;;;5015803;28;19906;-76
2021/10/02 04:50:02;;;;;;;;;;;13.80;99.90;;;;;;5015595;28;19955;-76
2021/10/02 04:52:28;;;;;;;;;;;13.90;99.90;;;;;;5015504;28;19909;-77
2021/10/02 04:54:56;;;;;;;;;;;14.10;99.90;;;;;;5015788;28;19905;-77
2021/10/02 04:57:22;;;;;;;;;;;14.00;99.90;;;;;;5015388;28;19906;-76
2021/10/02 04:59:47;;;;;;;;;;;14.10;99.90;;;;;;5015511;28;19912;-76
2021/10/02 05:02:13;;;;;;;;;;;14.10;99.90;;;;;;5015396;28;19906;-76
2021/10/02 05:04:38;;;;;;;;;;;14.10;99.90;;;;;;5015246;28;19909;-76
2021/10/02 05:07:04;;;;;;;;;;;14.10;99.90;;;;;;5014835;28;19913;-76
2021/10/02 05:09:30;;;;;;;;;;;13.90;99.90;;;;;;5015259;28;19912;-76
2021/10/02 05:11:56;;;;;;;;;;;13.80;99.90;;;;;;5015248;28;19913;-77
2021/10/02 05:14:22;;;;;;;;;;;14.00;99.90;;;;;;5015046;28;19906;-76
2021/10/02 05:16:47;;;;;;;;;;;13.90;99.90;;;;;;5015095;28;19912;-76
2021/10/02 05:19:13;;;;;;;;;;;14.00;99.90;;;;;;5013902;28;19960;-76
2021/10/02 05:21:38;;;;;;;;;;;14.10;99.90;;;;;;5014954;28;20365;-76
2021/10/02 05:24:04;;;;;;;;;;;14.10;99.90;;;;;;5014928;28;19905;-76
2021/10/02 05:26:31;;;;;;;;;;;13.80;99.90;;;;;;5014961;28;19905;-76
2021/10/02 05:28:56;;;;;;;;;;;13.90;99.90;;;;;;5013487;28;19913;-75
2021/10/02 05:31:22;;;;;;;;;;;13.80;99.90;;;;;;5014683;28;19905;-76
2021/10/02 05:33:47;;;;;;;;;;;13.90;99.90;;;;;;5014738;28;19905;-76
2021/10/02 05:36:13;;;;;;;;;;;13.90;99.90;;;;;;5014169;28;19906;-76
2021/10/02 05:38:39;;;;;;;;;;;13.80;99.90;;;;;;5014800;28;19909;-76
2021/10/02 05:41:05;;;;;;;;;;;13.80;99.90;;;;;;5015221;28;20476;-77
2021/10/02 05:43:30;;;;;;;;;;;13.80;99.90;;;;;;5014885;28;19906;-79
2021/10/02 05:45:56;;;;;;;;;;;13.80;99.90;;;;;;5013264;28;19955;-79
2021/10/02 05:48:21;;;;;;;;;;;13.80;99.90;;;;;;5013225;28;19906;-78
2021/10/02 05:50:47;;;;;;;;;;;13.80;99.90;;;;;;5014789;28;19913;-79
2021/10/02 05:53:13;;;;;;;;;;;13.80;99.90;;;;;;5014328;28;20369;-78
2021/10/02 05:55:38;;;;;;;;;;;13.90;99.90;;;;;;5014637;28;19913;-78
2021/10/02 05:58:04;;;;;;;;;;;13.90;99.90;;;;;;5014514;28;19941;-77
2021/10/02 06:00:29;;;;;;;;;;;14.00;99.90;;;;;;5014483;28;20443;-77
2021/10/02 06:02:59;;;;;;;;;;;14.00;99.90;;;;;;5014483;28;19912;-77
2021/10/02 06:05:26;;;;;;;;;;;14.10;99.90;;;;;;5013985;28;19909;-77
2021/10/02 06:07:53;;;;;;;;;;;14.20;99.90;;;;;;5013823;28;19959;-77
2021/10/02 06:10:19;;;;;;;;;;;14.20;99.90;;;;;;5013897;28;20409;-78
2021/10/02 06:12:44;;;;;;;;;;;14.10;99.90;;;;;;5014372;28;19964;-78
2021/10/02 06:15:10;;;;;;;;;;;14.20;99.90;;;;;;5014268;28;19905;-77
2021/10/02 06:17:35;;;;;;;;;;;14.20;99.90;;;;;;5014372;28;19955;-77
2021/10/02 06:20:01;;;;;;;;;;;14.30;99.90;;;;;;5014228;28;20350;-77
2021/10/02 06:22:26;;;;;;;;;;;14.30;99.90;;;;;;5014308;28;19955;-77
2021/10/02 06:24:52;;;;;;;;;;;14.20;99.90;;;;;;5014405;28;19905;-77
2021/10/02 06:27:17;;;;;;;;;;;14.10;99.90;;;;;;5012933;28;19912;-77
2021/10/02 06:29:43;;;;;;;;;;;14.10;99.90;;;;;;5014122;28;19905;-78
2021/10/02 06:32:09;;;;;;;;;;;14.10;99.90;;;;;;5013897;28;19917;-76
2021/10/02 06:34:34;;;;;;;;;;;14.10;99.90;;;;;;5014411;28;19912;-77
2021/10/02 06:37:00;;;;;;;;;;;14.10;99.90;;;;;;5012651;28;19906;-77
2021/10/02 06:39:25;;;;;;;;;;;14.00;99.90;;;;;;5013689;28;19905;-76
2021/10/02 06:41:51;;;;;;;;;;;14.10;99.90;;;;;;5014022;28;20259;-77
2021/10/02 06:44:17;;;;;;;;;;;14.20;99.90;;;;;;5013386;28;19913;-77
2021/10/02 06:46:42;;;;;;;;;;;14.20;99.90;;;;;;5015246;28;20395;-77
2021/10/02 06:49:08;;;;;;;;;;;14.10;99.90;;;;;;5017750;28;19906;-77
2021/10/02 06:51:34;;;;;;;;;;;14.30;99.90;;;;;;5017688;28;19913;-77
2021/10/02 06:53:59;;;;;;;;;;;14.30;99.90;;;;;;5017620;28;20046;-76
2021/10/02 06:56:25;;;;;;;;;;;14.30;99.90;;;;;;5017738;28;19905;-77
2021/10/02 06:58:50;;;;;;;;;;;14.40;99.90;;;;;;5017413;28;19912;-77
2021/10/02 07:01:16;;;;;;;;;;;14.40;99.90;;;;;;5017648;28;19905;-78
2021/10/02 07:03:42;;;;;;;;;;;14.40;99.90;;;;;;5016217;28;19913;-77
2021/10/02 07:06:07;;;;;;;;;;;14.40;99.90;;;;;;5017257;28;19948;-80
2021/10/02 07:08:33;;;;;;;;;;;14.50;99.90;;;;;;5016091;28;19952;-79
2021/10/02 07:10:58;;;;;;;;;;;14.50;99.90;;;;;;5017436;28;20028;-80
2021/10/02 07:13:24;;;;;;;;;;;14.50;99.90;;;;;;5017176;28;19917;-80
2021/10/02 07:15:50;;;;;;;;;;;14.40;99.90;;;;;;5015761;28;20361;-81
2021/10/02 07:18:17;;;;;;;;;;;14.30;99.90;;;;;;5017980;28;20385;-82
2021/10/02 07:20:43;;;;;;;;;;;14.40;99.90;;;;;;5017230;28;19906;-82
2021/10/02 07:23:08;;;;;;;;;;;14.40;99.90;;;;;;5017052;28;19906;-80
2021/10/02 07:25:34;;;;;;;;;;;14.40;99.90;;;;;;5015635;28;19952;-81
2021/10/02 07:28:00;;;;;;;;;;;14.40;99.90;;;;;;5016869;28;19905;-81
2021/10/02 07:30:26;;;;;;;;;;;14.50;99.90;;;;;;5016606;28;19912;-80
2021/10/02 07:32:51;;;;;;;;;;;14.50;99.90;;;;;;5016686;28;20258;-79
2021/10/02 07:35:17;;;;;;;;;;;14.50;99.90;;;;;;5016524;28;20251;-80
2021/10/02 07:37:43;;;;;;;;;;;14.50;99.90;;;;;;5015374;28;19905;-80
2021/10/02 07:40:10;;;;;;;;;;;14.60;99.90;;;;;;5016586;28;20385;-80
2021/10/02 07:42:37;;;;;;;;;;;14.60;99.90;;;;;;5016363;28;19906;-80
2021/10/02 07:45:07;;;;;;;;;;;14.70;99.90;;;;;;5016391;28;19988;-80
2021/10/02 07:47:33;;;;;;;;;;;14.70;99.90;;;;;;5016513;28;19905;-80
2021/10/02 07:49:59;;;;;;;;;;;14.70;99.90;;;;;;5015257;28;19905;-80
2021/10/02 07:52:26;;;;;;;;;;;14.80;99.90;;;;;;5015058;28;19932;-81
2021/10/02 07:54:52;;;;;;;;;;;14.70;99.90;;;;;;5016610;28;19905;-80
2021/10/02 07:57:19;;;;;;;;;;;14.80;99.90;;;;;;5015670;28;19905;-81
2021/10/02 07:59:46;;;;;;;;;;;14.80;99.90;;;;;;5016275;28;19912;-81
2021/10/02 08:02:15;;;;;;;;;;;14.90;99.90;;;;;;5016313;28;20384;-80
2021/10/02 08:04:42;;;;;;;;;;;14.90;99.90;;;;;;5016319;28;19905;-81
2021/10/02 08:07:08;;;;;;;;;;;15.00;99.90;;;;;;5015864;28;19924;-80
2021/10/02 08:09:34;;;;;;;;;;;15.10;99.90;;;;;;5016281;28;19905;-79
2021/10/02 08:12:00;;;;;;;;;;;15.10;99.90;;;;;;5016376;28;20384;-79
2021/10/02 08:14:25;;;;;;;;;;;15.20;99.90;;;;;;5016210;28;19906;-79
2021/10/02 08:16:52;;;;;;;;;;;15.40;99.90;;;;;;5016292;28;19912;-78
2021/10/02 08:19:19;;;;;;;;;;;15.50;99.90;;;;;;5016026;28;19906;-79
2021/10/02 08:21:45;;;;;;;;;;;15.60;99.90;;;;;;5016271;28;20285;-78
2021/10/02 08:24:11;;;;;;;;;;;15.60;99.90;;;;;;5015998;28;19909;-78
2021/10/02 08:26:38;;;;;;;;;;;15.70;99.90;;;;;;5014648;28;20350;-78
2021/10/02 08:29:04;;;;;;;;;;;15.70;99.90;;;;;;5015725;28;19906;-79
2021/10/02 08:31:31;;;;;;;;;;;15.80;99.90;;;;;;5014266;28;19909;-78
2021/10/02 08:33:56;;;;;;;;;;;15.80;99.90;;;;;;5014413;28;19912;-77
2021/10/02 08:36:22;;;;;;;;;;;15.90;99.90;;;;;;4994986;28;20377;-76
2021/10/02 08:38:48;;;;;;;;;;;15.90;99.90;;;;;;5035273;28;19905;-77
2021/10/02 08:41:16;;;;;;;;;;;15.90;99.90;;;;;;5035317;28;20270;-77
2021/10/02 08:43:46;;;;;;;;;;;15.90;99.90;;;;;;5035241;28;19905;-77
2021/10/02 08:46:12;;;;;;;;;;;15.90;99.90;;;;;;5035035;28;19905;-78
2021/10/02 08:48:39;;;;;;;;;;;15.90;99.90;;;;;;5035259;28;20038;-79
2021/10/02 08:51:04;;;;;;;;;;;15.90;99.90;;;;;;5035392;28;20579;-80
2021/10/02 08:53:31;;;;;;;;;;;15.90;99.90;;;;;;5035096;28;19908;-82
2021/10/02 08:55:57;;;;;;;;;;;15.80;99.90;;;;;;5034847;28;19912;-84
2021/10/02 08:58:23;;;;;;;;;;;15.70;99.90;;;;;;5034871;28;19905;-84
2021/10/02 09:00:49;;;;;;;;;;;15.70;99.90;;;;;;5034915;28;19906;-84
2021/10/02 09:03:14;;;;;;;;;;;15.60;99.90;;;;;;5034847;28;20420;-84
2021/10/02 09:05:40;;;;;;;;;;;15.60;99.90;;;;;;5034412;28;19919;-84
2021/10/02 09:08:06;;;;;;;;;;;15.60;99.90;;;;;;5035275;28;19917;-83
2021/10/02 09:10:33;;;;;;;;;;;15.60;99.90;;;;;;5033735;28;19909;-83
2021/10/02 09:13:01;;;;;;;;;;;15.60;99.90;;;;;;5034515;28;19961;-85
2021/10/02 09:15:26;;;;;;;;;;;15.60;99.90;;;;;;5034290;28;19912;-86
2021/10/02 09:17:55;;;;;;;;;;;15.60;99.90;;;;;;5033331;28;19992;-83
2021/10/02 09:20:21;;;;;;;;;;;15.60;99.90;;;;;;5034637;28;19905;-85
2021/10/02 09:22:52;;;;;;;;;;;15.70;99.90;;;;;;5033366;28;20004;-86
2021/10/02 09:25:19;;;;;;;;;;;15.60;99.90;;;;;;5033102;28;20285;-86
2021/10/02 09:27:45;;;;;;;;;;;15.70;99.90;;;;;;5033768;28;19912;-86
2021/10/02 09:30:12;;;;;;;;;;;15.70;99.90;;;;;;5033755;28;19905;-86
2021/10/02 09:32:41;;;;;;;;;;;15.70;99.90;;;;;;5032810;28;19971;-86
2021/10/02 09:35:14;;;;;;;;;;;15.70;99.90;;;;;;5032824;28;19955;-84
2021/10/02 09:37:41;;;;;;;;;;;15.70;99.90;;;;;;5023959;28;20293;-83
2021/10/02 09:40:11;;;;;;;;;;;15.70;99.90;;;;;;5032796;28;19905;-84
2021/10/02 09:42:40;;;;;;;;;;;15.70;99.90;;;;;;5032969;28;19905;-83
2021/10/02 09:45:07;;;;;;;;;;;15.80;99.90;;;;;;5033996;28;20420;-82
2021/10/02 09:47:33;;;;;;;;;;;15.90;99.90;;;;;;5034188;28;19969;-82
2021/10/02 09:49:59;;;;;;;;;;;15.90;99.90;;;;;;5034211;28;19916;-82
2021/10/02 09:52:29;;;;;;;;;;;16.10;99.90;;;;;;5032809;28;19915;-82
2021/10/02 09:54:55;;;;;;;;;;;16.30;99.90;;;;;;5034490;28;20316;-83
2021/10/02 09:57:21;;;;;;;;;;;16.50;99.90;;;;;;5034321;28;19906;-83
2021/10/02 09:59:47;;;;;;;;;;;16.60;99.90;;;;;;5032642;28;19905;-82
2021/10/02 10:02:20;;;;;;;;;;;16.80;99.90;;;;;;5034554;28;19905;-81
2021/10/02 10:04:49;;;;;;;;;;;17.10;99.90;;;;;;5033921;28;19928;-81
2021/10/02 10:07:15;;;;;;;;;;;17.50;99.90;;;;;;5033896;28;19975;-81
2021/10/02 10:09:40;;;;;;;;;;;17.70;99.90;;;;;;5033159;28;20380;-80
2021/10/02 10:12:06;;;;;;;;;;;17.40;99.90;;;;;;5034041;28;20534;-79
2021/10/02 10:14:34;;;;;;;;;;;17.30;99.90;;;;;;5033967;28;19940;-78
2021/10/02 10:16:59;;;;;;;;;;;17.30;99.90;;;;;;5013377;28;19932;-80
2021/10/02 10:19:30;;;;;;;;;;;17.20;99.90;;;;;;5029444;28;20362;-79
2021/10/02 10:22:07;;;;;;;;;;;17.10;99.90;;;;;;5012394;28;20366;-79
2021/10/02 10:24:38;;;;;;;;;;;17.20;99.90;;;;;;5014274;28;19912;-79
2021/10/02 10:27:04;;;;;;;;;;;17.20;99.90;;;;;;5012983;28;19905;-79
2021/10/02 10:29:43;;;;;;;;;;;17.30;99.90;;;;;;5014181;28;19948;-79
2021/10/02 10:32:11;;;;;;;;;;;17.20;99.90;;;;;;5014255;28;19924;-79
2021/10/02 10:34:38;;;;;;;;;;;17.30;99.90;;;;;;5013801;28;19905;-79
2021/10/02 10:37:05;;;;;;;;;;;17.20;99.90;;;;;;5013836;28;20332;-79
2021/10/02 10:39:31;;;;;;;;;;;17.10;99.90;;;;;;5013804;28;20254;-80
2021/10/02 10:41:56;;;;;;;;;;;17.00;99.90;;;;;;5012494;28;19906;-80
2021/10/02 10:44:22;;;;;;;;;;;16.90;99.90;;;;;;5014336;28;19913;-80
2021/10/02 10:46:48;;;;;;;;;;;16.70;99.90;;;;;;5013787;28;19912;-83
2021/10/02 10:49:14;;;;;;;;;;;16.50;99.90;;;;;;5013835;28;20266;-84
2021/10/02 10:51:42;;;;;;;;;;;16.30;99.90;;;;;;5014081;28;20284;-84
2021/10/02 10:54:14;;;;;;;;;;;16.20;99.90;;;;;;5013995;28;19914;-85
2021/10/02 10:56:45;;;;;;;;;;;16.10;99.90;;;;;;5014235;28;20406;-85
2021/10/02 10:59:12;;;;;;;;;;;16.10;99.90;;;;;;5013821;28;19944;-83
2021/10/02 11:01:39;;;;;;;;;;;16.00;99.90;;;;;;5028635;28;19913;-86
2021/10/02 11:04:05;;;;;;;;;;;16.00;99.90;;;;;;5012003;28;20262;-85
2021/10/02 11:06:49;;;;;;;;;;;16.00;99.90;;;;;;5012681;28;19914;-85
2021/10/02 11:09:15;;;;;;;;;;;15.90;99.90;;;;;;5013819;28;20267;-86
2021/10/02 11:11:43;;;;;;;;;;;15.80;99.90;;;;;;5012519;28;19912;-87
2021/10/02 11:14:10;;;;;;;;;;;15.70;99.90;;;;;;5012590;28;19955;-86
2021/10/02 11:16:38;;;;;;;;;;;15.70;99.90;;;;;;5013674;28;19905;-86
2021/10/02 11:19:22;;;;;;;;;;;15.60;99.90;;;;;;5012453;28;20294;-85
2021/10/02 11:22:10;;;;;;;;;;;15.60;99.90;;;;;;5011520;28;19951;-86
2021/10/02 11:24:37;;;;;;;;;;;15.50;99.90;;;;;;5001894;28;19910;-86
2021/10/02 11:27:03;;;;;;;;;;;15.60;99.90;;;;;;5013740;28;20361;-87
2021/10/02 11:29:36;;;;;;;;;;;15.60;99.90;;;;;;5029078;28;19909;-87
2021/10/02 11:32:17;;;;;;;;;;;15.70;99.90;;;;;;5014186;28;19932;-86
2021/10/02 11:35:01;;;;;;;;;;;15.70;99.90;;;;;;5015800;28;19906;-85
2021/10/02 11:37:39;;;;;;;;;;;15.80;99.90;;;;;;5015529;28;19905;-85
2021/10/02 11:40:25;;;;;;;;;;;15.80;99.90;;;;;;5017087;28;19905;-86
2021/10/02 11:43:09;;;;;;;;;;;15.80;99.90;;;;;;5016937;28;20017;-83
2021/10/02 11:45:35;;;;;;;;;;;15.80;99.90;;;;;;5016854;28;19909;-86
2021/10/02 11:48:14;;;;;;;;;;;15.80;99.90;;;;;;5016891;28;20004;-86
2021/10/02 11:50:40;;;;;;;;;;;15.80;99.90;;;;;;5016744;28;19909;-85
2021/10/02 11:53:05;;;;;;;;;;;15.80;99.90;;;;;;5031874;28;19909;-85
2021/10/02 11:55:34;;;;;;;;;;;15.90;99.90;;;;;;5015434;28;19906;-86
2021/10/02 11:58:09;;;;;;;;;;;15.80;99.90;;;;;;5015590;28;19917;-87
2021/10/02 12:00:44;;;;;;;;;;;15.80;99.90;;;;;;5015398;28;20277;-84
2021/10/02 12:03:10;;;;;;;;;;;15.90;99.90;;;;;;5016533;28;19940;-85
2021/10/02 12:05:35;;;;;;;;;;;15.90;99.90;;;;;;5016500;28;19913;-84
2021/10/02 12:08:01;;;;;;;;;;;15.90;99.90;;;;;;5015193;28;20370;-85
2021/10/02 12:10:27;;;;;;;;;;;15.90;99.90;;;;;;5015290;28;19928;-86
2021/10/02 12:12:53;;;;;;;;;;;15.80;99.90;;;;;;5016363;28;19929;-86
2021/10/02 12:15:31;;;;;;;;;;;15.80;99.90;;;;;;5016741;28;19906;-86
2021/10/02 12:17:56;;;;;;;;;;;15.80;99.90;;;;;;5016692;28;19912;-86
2021/10/02 12:20:37;;;;;;;;;;;15.80;99.90;;;;;;5014788;28;19905;-86
2021/10/02 12:23:04;;;;;;;;;;;15.90;99.90;;;;;;5016176;28;19912;-87
2021/10/02 12:25:29;;;;;;;;;;;15.90;99.90;;;;;;5016849;28;19915;-87
2021/10/02 12:27:55;;;;;;;;;;;16.00;99.90;;;;;;5016714;28;19905;-87
2021/10/02 12:30:20;;;;;;;;;;;16.00;99.90;;;;;;5015194;28;19905;-86
2021/10/02 12:32:55;;;;;;;;;;;16.00;99.90;;;;;;5014752;28;20351;-87
2021/10/02 12:35:21;;;;;;;;;;;16.00;99.90;;;;;;5014422;28;19912;-87
2021/10/02 12:37:46;;;;;;;;;;;16.10;99.90;;;;;;5014718;28;19909;-86
2021/10/02 12:40:13;;;;;;;;;;;16.20;99.90;;;;;;5014504;28;20321;-84
2021/10/02 12:42:41;;;;;;;;;;;16.20;99.90;;;;;;5015718;28;19988;-85
2021/10/02 12:45:08;;;;;;;;;;;16.30;99.90;;;;;;5015218;28;19952;-85
2021/10/02 12:47:34;;;;;;;;;;;16.20;99.90;;;;;;5015920;28;19905;-85
2021/10/02 12:50:04;;;;;;;;;;;16.30;99.90;;;;;;5014304;28;20011;-83
2021/10/02 12:52:29;;;;;;;;;;;16.40;99.90;;;;;;5015278;28;20056;-83
2021/10/02 12:54:58;;;;;;;;;;;16.40;99.90;;;;;;5014222;28;19972;-82
2021/10/02 12:57:28;;;;;;;;;;;16.50;99.90;;;;;;5014506;28;19909;-83
2021/10/02 13:00:00;;;;;;;;;;;16.60;99.90;;;;;;5015902;28;19912;-82
2021/10/02 13:02:29;;;;;;;;;;;16.70;99.90;;;;;;5015367;28;19912;-82
2021/10/02 13:04:55;;;;;;;;;;;16.70;99.90;;;;;;5015190;28;19905;-81
2021/10/02 13:07:22;;;;;;;;;;;16.70;99.90;;;;;;5015296;28;20012;-81
2021/10/02 13:12:29;;;;;;;12.52;1.42;;;16.70;99.90;;;;;;5072209;27;20382;-86
2021/10/02 13:14:55;;;;;;;5.45;1.50;;;16.70;99.90;;;;;;5070728;28;20032;-83
2021/10/02 13:17:23;;;;;;;5.43;1.52;;;16.70;99.90;;;;;;5070416;28;20126;-85
2021/10/02 13:19:48;;;;;;;6.75;1.65;;;16.70;99.90;;;;;;5069346;28;20029;-85
2021/10/02 13:22:18;;;;;;;;;;;16.70;99.90;;;;;;5069586;28;20450;-84
2021/10/02 13:25:08;;;;;;;7.20;1.70;;;16.70;99.90;;;;;;5069125;28;19910;-83
2021/10/02 13:27:36;;;;;;;8.32;1.70;;;16.80;99.90;;;;;;5070814;28;20071;-86
2021/10/02 13:31:40;;;;;;;7.63;1.60;;;16.80;99.90;;;;;;5070825;28;20378;-82
2021/10/02 13:34:07;;;;;;;;;;;16.90;99.90;;;;;;5071338;28;20079;-82
2021/10/02 13:36:39;;;;;;;6.00;1.65;;;16.80;99.90;;;;;;5070581;28;19908;-82
2021/10/02 13:39:08;;;;;;;6.45;1.70;;;16.90;99.90;;;;;;5069175;28;20028;-82
2021/10/02 13:41:34;;;;;;;8.90;1.73;;;16.90;99.90;;;;;;5070607;28;20063;-83
2021/10/02 13:44:03;;;;;;;5.03;1.40;;;16.90;99.90;;;;;;5070743;28;20078;-84
2021/10/02 13:46:40;;;;;;;7.88;1.65;;;17.00;99.90;;;;;;5070153;28;20039;-83
2021/10/02 13:49:11;;;;;;;4.90;1.45;;;16.90;99.90;;;;;;5068900;28;20029;-84
2021/10/02 13:51:38;;;;;;;6.25;1.40;;;16.90;99.90;;;;;;5068750;28;20382;-86
2021/10/02 13:54:05;;;;;;;5.00;1.35;;;17.00;99.90;;;;;;5070238;28;20047;-84
2021/10/02 13:56:44;;;;;;;3.95;1.20;;;17.00;99.90;;;;;;5070389;28;20062;-87
2021/10/02 13:59:11;;;;;;;5.35;1.45;;;17.00;99.90;;;;;;5069003;28;20065;-85
2021/10/02 14:01:37;;;;;;;5.70;1.33;;;17.00;99.90;;;;;;5070395;28;20027;-85
2021/10/02 14:04:04;;;;;;;4.78;1.30;;;16.90;99.90;;;;;;5070590;28;20047;-87
2021/10/02 14:06:32;;;;;;;3.47;1.27;;;16.80;99.90;;;;;;5069054;28;20017;-84
2021/10/02 14:08:58;;;;;;;4.38;1.20;;;16.80;99.90;;;;;;5070264;28;20020;-87
2021/10/02 14:11:23;;;;;;;;;;;16.90;99.90;;;;;;5070469;28;20031;-86
2021/10/02 14:13:49;;;;;;;2.53;1.00;;;16.80;99.90;;;;;;5070290;28;19912;-87
2021/10/02 14:16:17;;;;;;;;;;;16.80;99.90;;;;;;5068894;28;20021;-86
2021/10/02 14:18:43;;;;;;;6.97;1.20;;;16.80;99.90;;;;;;5068344;28;19916;-85
2021/10/02 14:21:08;;;;;;;;;;;16.80;99.90;;;;;;5069635;28;20025;-86
2021/10/02 14:23:34;;;;;;;5.80;1.27;;;16.80;99.90;;;;;;5069674;28;19999;-86
2021/10/02 14:26:00;;;;;;;;;;;16.80;99.90;;;;;;5069956;28;20060;-87
2021/10/02 14:28:26;;;;;;;4.63;1.20;;;16.80;99.90;;;;;;5068231;28;19905;-86
2021/10/02 14:30:52;;;;;;;;;;;16.80;99.90;;;;;;5068284;28;20140;-86
2021/10/02 14:33:19;;;;;;;7.25;1.20;;;17.00;99.90;;;;;;5068033;28;19932;-86
2021/10/02 14:35:45;;;;;;;4.75;1.30;;;17.00;99.90;;;;;;5069426;28;20383;-85
2021/10/02 14:38:15;;;;;;;3.80;1.20;;;17.10;99.90;;;;;;5067960;28;20028;-84
2021/10/02 14:40:42;;;;;;;4.40;1.20;;;17.10;99.90;;;;;;5068238;28;20033;-85
2021/10/02 14:43:07;;;;;;;4.55;1.35;;;17.10;99.90;;;;;;5054312;28;20017;-85
2021/10/02 14:45:33;;;;;;;;;;;17.20;99.90;;;;;;5056351;28;20389;-86
2021/10/02 14:47:59;;;;;;;3.65;1.10;;;17.20;99.90;;;;;;5056141;28;19986;-85
2021/10/02 14:50:25;;;;;;;;;;;17.20;99.90;;;;;;5056529;28;20033;-86
2021/10/02 14:52:53;;;;;;;2.90;1.17;;;17.30;99.90;;;;;;5055951;28;19999;-83
2021/10/02 14:55:19;;;;;;;3.17;1.00;;;17.30;99.90;;;;;;5055833;28;20029;-87
2021/10/02 14:57:45;;;;;;;;;;;17.30;99.90;;;;;;5056578;28;20027;-85
2021/10/02 15:00:12;;;;;;;1.83;1.00;;;17.30;99.90;;;;;;5054420;28;19992;-86
2021/10/02 15:02:44;;;;;;;2.17;0.90;;;17.30;99.90;;;;;;5054463;28;20025;-85
2021/10/02 15:05:11;;;;;;;8.30;1.05;;;17.30;99.90;;;;;;5054349;28;20026;-88
2021/10/02 15:07:38;;;;;;;1.88;0.82;;;17.30;99.90;;;;;;5054637;28;20576;-85
2021/10/02 15:10:05;;;;;;;2.45;0.90;;;17.40;99.90;;;;;;5055629;28;20052;-85
2021/10/02 15:12:31;;;;;;;1.38;0.70;;;17.30;99.90;;;;;;5055842;28;20021;-86
2021/10/02 15:14:57;;;;;;;;;;;17.40;99.90;;;;;;5055825;28;20021;-85